Time;durP1;ratioP1;P1;durP2;ratioP2;P2;SDS_P1;SDS_P2;PMS_P1;PMS_P2;Temp;Humidity;BMP_temperature;BMP_pressure;BME280_temperature;BME280_humidity;BME280_pressure;Samples;Min_cycle;Max_cycle;Signal;HPM_P1;HPM_P2
2020/12/27 00:01:07;;;;;;;6.20;5.60;;;;;;;;;;10437916;28;20051;-61
2020/12/27 00:06:05;;;;;;;4.97;4.53;;;;;;;;;;10439475;27;20101;-60
2020/12/27 00:11:02;;;;;;;4.63;4.22;;;;;;;;;;10445975;27;20077;-60
2020/12/27 00:16:00;;;;;;;5.85;5.20;;;;;;;;;;10445616;27;20043;-61
2020/12/27 00:20:57;;;;;;;5.78;5.15;;;;;;;;;;10444341;27;20050;-61
2020/12/27 00:25:55;;;;;;;4.45;4.05;;;;;;;;;;10445060;27;20081;-60
2020/12/27 00:30:52;;;;;;;5.40;4.90;;;;;;;;;;10444616;27;20031;-60
2020/12/27 00:35:50;;;;;;;7.13;6.07;;;;;;;;;;10444571;27;20121;-61
2020/12/27 00:40:48;;;;;;;6.32;5.63;;;;;;;;;;10444092;27;20050;-61
2020/12/27 00:45:46;;;;;;;5.88;5.28;;;;;;;;;;10443449;27;20090;-62
2020/12/27 00:50:48;;;;;;;7.70;6.60;;;;;;;;;;10442367;27;20043;-61
2020/12/27 00:55:46;;;;;;;12.48;6.75;;;;;;;;;;10443346;27;20069;-60
2020/12/27 01:00:45;;;;;;;13.48;7.57;;;;;;;;;;10423890;27;20062;-60
2020/12/27 01:05:42;;;;;;;7.30;5.93;;;;;;;;;;10423842;27;20047;-60
2020/12/27 01:10:40;;;;;;;7.05;5.53;;;;;;;;;;10441968;27;20074;-60
2020/12/27 01:15:39;;;;;;;5.60;5.10;;;;;;;;;;10443151;27;20455;-61
2020/12/27 01:20:41;;;;;;;7.05;5.00;;;;;;;;;;10423105;27;20043;-61
2020/12/27 01:25:39;;;;;;;7.40;6.03;;;;;;;;;;10423796;27;20043;-59
2020/12/27 01:30:38;;;;;;;6.95;6.25;;;;;;;;;;10422572;27;20041;-60
2020/12/27 01:35:43;;;;;;;6.35;5.53;;;;;;;;;;10423489;27;20054;-61
2020/12/27 01:40:41;;;;;;;9.13;8.07;;;;;;;;;;10422671;27;20043;-60
2020/12/27 01:45:41;;;;;;;7.30;5.90;;;;;;;;;;10422462;27;20047;-61
2020/12/27 01:50:42;;;;;;;6.53;5.80;;;;;;;;;;10420919;27;20051;-61
2020/12/27 01:55:41;;;;;;;7.13;6.43;;;;;;;;;;10422066;27;20050;-61
2020/12/27 02:00:42;;;;;;;6.65;5.85;;;;;;;;;;10422170;27;20047;-60
2020/12/27 02:05:59;;;;;;;9.25;5.93;;;;;;;;;;10422201;27;20070;-61
2020/12/27 02:10:56;;;;;;;6.55;5.80;;;;;;;;;;10439673;27;20085;-60
2020/12/27 02:15:55;;;;;;;7.22;5.47;;;;;;;;;;10421332;27;20047;-61
2020/12/27 02:21:12;;;;;;;6.40;5.80;;;;;;;;;;10437565;27;20412;-60
2020/12/27 02:26:11;;;;;;;5.32;4.82;;;;;;;;;;10417692;27;20043;-60
2020/12/27 02:31:14;;;;;;;5.65;5.05;;;;;;;;;;10417377;27;20051;-60
2020/12/27 02:36:27;;;;;;;5.95;5.38;;;;;;;;;;10420441;27;20054;-61
2020/12/27 02:41:28;;;;;;;4.65;4.25;;;;;;;;;;10420424;27;20093;-61
2020/12/27 02:46:37;;;;;;;4.25;3.85;;;;;;;;;;10418305;27;20090;-59
2020/12/27 02:51:53;;;;;;;;;;;;;;;;;;10439466;27;20086;-60
2020/12/27 02:56:51;;;;;;;6.38;4.55;;;;;;;;;;10420620;27;19926;-61
2020/12/27 03:01:48;;;;;;;3.65;3.35;;;;;;;;;;10439941;27;20036;-59
2020/12/27 03:07:20;;;;;;;3.33;3.03;;;;;;;;;;10419398;28;20075;-61
2020/12/27 03:12:28;;;;;;;3.15;2.85;;;;;;;;;;10420903;28;20055;-61
2020/12/27 03:17:26;;;;;;;2.97;2.67;;;;;;;;;;10439589;28;20077;-60
2020/12/27 03:22:30;;;;;;;2.60;2.40;;;;;;;;;;10436388;28;20058;-61
2020/12/27 03:27:46;;;;;;;2.70;2.47;;;;;;;;;;10451268;27;20450;-59
2020/12/27 03:32:44;;;;;;;2.85;2.42;;;;;;;;;;10419783;28;20496;-61
2020/12/27 03:37:42;;;;;;;4.95;4.53;;;;;;;;;;10411221;28;20047;-60
2020/12/27 03:43:09;;;;;;;3.08;2.70;;;;;;;;;;10433862;27;20090;-61
2020/12/27 03:48:09;;;;;;;2.58;2.38;;;;;;;;;;10427031;27;20106;-60
2020/12/27 03:53:22;;;;;;;2.80;2.30;;;;;;;;;;10425868;27;20050;-61
2020/12/27 03:58:28;;;;;;;2.53;2.33;;;;;;;;;;10444415;27;20070;-60
2020/12/27 04:03:34;;;;;;;2.92;2.72;;;;;;;;;;10424424;27;20050;-60
2020/12/27 04:08:38;;;;;;;3.55;3.03;;;;;;;;;;10426800;27;20093;-60
2020/12/27 04:13:38;;;;;;;2.75;2.55;;;;;;;;;;10426573;27;20074;-60
2020/12/27 04:18:42;;;;;;;4.10;3.70;;;;;;;;;;10426686;27;20042;-60
2020/12/27 04:24:19;;;;;;;5.10;3.60;;;;;;;;;;10283131;28;20844;-60
2020/12/27 04:29:17;;;;;;;3.08;2.78;;;;;;;;;;10385595;27;20050;-60
2020/12/27 04:34:22;;;;;;;;;;;;;;;;;;10424810;27;20047;-61
2020/12/27 04:39:19;;;;;;;3.30;3.00;;;;;;;;;;10425386;27;19924;-61
2020/12/27 04:44:21;;;;;;;2.58;2.38;;;;;;;;;;10416944;27;20063;-61
2020/12/27 04:49:23;;;;;;;3.03;2.20;;;;;;;;;;10425026;27;20488;-60
2020/12/27 04:54:31;;;;;;;4.60;3.05;;;;;;;;;;10424606;27;20047;-59
2020/12/27 04:59:45;;;;;;;3.58;3.08;;;;;;;;;;10423916;27;20412;-59
2020/12/27 05:04:47;;;;;;;16.52;10.75;;;;;;;;;;10423846;27;20412;-60
2020/12/27 05:09:52;;;;;;;;;;;;;;;;;;10422422;27;20078;-61
2020/12/27 05:14:50;;;;;;;4.22;3.80;;;;;;;;;;10424870;27;19923;-61
2020/12/27 05:19:52;;;;;;;3.67;3.15;;;;;;;;;;10422323;27;20096;-61
2020/12/27 05:24:51;;;;;;;4.18;3.60;;;;;;;;;;10423312;27;20062;-61
2020/12/27 05:30:07;;;;;;;4.05;3.65;;;;;;;;;;10447783;27;20083;-61
2020/12/27 05:35:23;;;;;;;7.40;4.28;;;;;;;;;;10447384;27;20467;-61
2020/12/27 05:40:41;;;;;;;5.85;4.13;;;;;;;;;;10424060;27;20047;-60
2020/12/27 05:45:48;;;;;;;5.57;4.70;;;;;;;;;;10423173;27;20056;-60
2020/12/27 05:50:46;;;;;;;5.75;5.20;;;;;;;;;;10440669;27;20075;-61
2020/12/27 05:55:48;;;;;;;12.70;10.25;;;;;;;;;;10422024;27;20039;-61
2020/12/27 06:00:52;;;;;;;7.07;6.38;;;;;;;;;;10421881;27;20046;-61
2020/12/27 06:06:10;;;;;;;8.43;7.22;;;;;;;;;;10421025;27;20047;-60
2020/12/27 06:11:21;;;;;;;7.90;6.95;;;;;;;;;;10418927;27;20082;-60
2020/12/27 06:16:40;;;;;;;13.98;11.48;;;;;;;;;;10422280;27;20047;-61
2020/12/27 06:22:02;;;;;;;14.48;11.70;;;;;;;;;;10438086;27;20039;-60
2020/12/27 06:27:06;;;;;;;12.75;11.23;;;;;;;;;;10420959;27;20083;-61
2020/12/27 06:32:06;;;;;;;11.82;10.60;;;;;;;;;;10435102;27;20508;-61
2020/12/27 06:37:17;;;;;;;9.65;8.75;;;;;;;;;;10409015;27;20124;-60
2020/12/27 06:42:43;;;;;;;17.30;12.45;;;;;;;;;;10411071;27;20101;-61
2020/12/27 06:48:03;;;;;;;10.82;9.68;;;;;;;;;;10413379;27;20087;-60
2020/12/27 06:53:10;;;;;;;24.92;17.58;;;;;;;;;;10415591;27;20082;-60
2020/12/27 06:58:30;;;;;;;30.42;19.13;;;;;;;;;;10435918;27;20530;-59
2020/12/27 07:03:33;;;;;;;23.55;15.60;;;;;;;;;;10418480;28;20050;-60
2020/12/27 07:08:41;;;;;;;15.95;12.18;;;;;;;;;;10433788;28;20074;-59
2020/12/27 07:13:41;;;;;;;17.75;13.73;;;;;;;;;;10435109;28;20039;-60
2020/12/27 07:18:43;;;;;;;23.70;17.50;;;;;;;;;;10443080;27;20070;-61
2020/12/27 07:23:46;;;;;;;16.35;14.57;;;;;;;;;;10445357;27;20062;-61
2020/12/27 07:28:45;;;;;;;19.55;15.65;;;;;;;;;;10444839;27;20078;-61
2020/12/27 07:33:45;;;;;;;17.48;14.30;;;;;;;;;;10445389;27;20063;-61
2020/12/27 07:38:54;;;;;;;24.88;20.70;;;;;;;;;;10444776;27;20067;-60
2020/12/27 07:50:08;;;;;;;12.27;10.65;;;;;;;;;;10442754;27;20445;-61
2020/12/27 07:55:06;;;;;;;13.45;12.02;;;;;;;;;;10444576;27;20435;-62
2020/12/27 08:00:05;;;;;;;14.55;12.73;;;;;;;;;;10444520;27;20431;-62
2020/12/27 08:05:10;;;;;;;16.23;11.85;;;;;;;;;;10450825;27;20050;-61
2020/12/27 08:10:18;;;;;;;15.18;12.93;;;;;;;;;;10444482;27;20317;-61
2020/12/27 08:15:16;;;;;;;15.32;12.68;;;;;;;;;;10442244;27;20075;-61
2020/12/27 08:20:13;;;;;;;16.73;12.73;;;;;;;;;;10441562;27;20083;-61
2020/12/27 08:25:11;;;;;;;12.50;11.20;;;;;;;;;;10440600;27;20071;-61
2020/12/27 08:30:09;;;;;;;13.32;11.73;;;;;;;;;;10442324;27;20074;-61
2020/12/27 08:35:08;;;;;;;12.60;9.75;;;;;;;;;;10442942;27;20047;-61
2020/12/27 08:40:06;;;;;;;15.23;13.00;;;;;;;;;;10442220;27;20071;-61
2020/12/27 08:45:06;;;;;;;27.27;20.40;;;;;;;;;;10442913;27;20439;-61
2020/12/27 08:50:05;;;;;;;63.92;37.15;;;;;;;;;;10442790;27;20078;-61
2020/12/27 08:55:04;;;;;;;15.77;13.43;;;;;;;;;;10442560;27;20039;-61
2020/12/27 09:00:04;;;;;;;13.75;10.35;;;;;;;;;;10441576;27;20071;-61
2020/12/27 09:05:06;;;;;;;13.55;10.93;;;;;;;;;;10442609;27;20055;-61
2020/12/27 09:10:04;;;;;;;14.43;11.35;;;;;;;;;;10441574;27;20074;-61
2020/12/27 09:15:20;;;;;;;22.33;16.20;;;;;;;;;;10441727;27;20039;-60
2020/12/27 09:20:20;;;;;;;24.02;12.57;;;;;;;;;;10439717;27;20421;-60
2020/12/27 09:25:18;;;;;;;15.07;11.45;;;;;;;;;;10441554;27;20055;-61
2020/12/27 09:30:16;;;;;;;22.73;15.55;;;;;;;;;;10440233;27;20081;-61
2020/12/27 09:35:18;;;;;;;21.63;16.95;;;;;;;;;;10440262;27;20408;-61
2020/12/27 09:40:16;;;;;;;15.77;13.27;;;;;;;;;;10437085;27;20085;-61
2020/12/27 09:45:18;;;;;;;19.77;15.95;;;;;;;;;;10439428;27;20538;-60
2020/12/27 09:50:15;;;;;;;22.48;16.52;;;;;;;;;;10437722;27;20078;-60
2020/12/27 09:55:13;;;;;;;16.63;12.82;;;;;;;;;;10440232;27;20035;-61
2020/12/27 10:00:11;;;;;;;19.92;11.68;;;;;;;;;;10437054;27;20146;-61
2020/12/27 10:05:08;;;;;;;16.38;13.02;;;;;;;;;;10438976;27;20043;-59
2020/12/27 10:10:06;;;;;;;21.92;17.13;;;;;;;;;;10439504;27;20063;-60
2020/12/27 10:15:05;;;;;;;31.92;21.92;;;;;;;;;;10438446;27;20251;-61
2020/12/27 10:20:03;;;;;;;16.48;12.30;;;;;;;;;;10439589;27;20038;-61
2020/12/27 10:25:00;;;;;;;54.60;29.02;;;;;;;;;;10438947;27;20065;-61
2020/12/27 10:29:57;;;;;;;36.03;23.08;;;;;;;;;;10437787;27;20074;-62
2020/12/27 10:34:56;;;;;;;33.70;22.77;;;;;;;;;;10438621;27;20071;-61
2020/12/27 10:39:53;;;;;;;18.98;13.93;;;;;;;;;;10436309;27;20031;-61
2020/12/27 10:44:54;;;;;;;54.42;30.17;;;;;;;;;;10436289;27;20444;-60
2020/12/27 10:49:53;;;;;;;34.15;21.48;;;;;;;;;;10434389;27;20495;-61
2020/12/27 10:54:51;;;;;;;33.63;20.92;;;;;;;;;;10438694;27;20055;-61
2020/12/27 10:59:48;;;;;;;23.17;14.63;;;;;;;;;;10419359;27;20031;-61
2020/12/27 11:04:46;;;;;;;32.33;22.23;;;;;;;;;;10438045;27;20066;-60
2020/12/27 11:10:01;;;;;;;28.02;19.30;;;;;;;;;;10436151;28;20070;-60
2020/12/27 11:14:59;;;;;;;27.85;19.88;;;;;;;;;;10437535;28;20067;-61
2020/12/27 11:19:56;;;;;;;26.80;17.63;;;;;;;;;;10437834;28;20100;-61
2020/12/27 11:24:53;;;;;;;28.77;20.02;;;;;;;;;;10437988;28;20038;-60
2020/12/27 11:29:51;;;;;;;38.97;20.35;;;;;;;;;;10437630;28;20530;-60
2020/12/27 11:34:49;;;;;;;31.50;21.50;;;;;;;;;;10437506;28;20060;-61
2020/12/27 11:39:46;;;;;;;23.33;17.52;;;;;;;;;;10436348;28;20459;-61
2020/12/27 11:44:45;;;;;;;19.20;14.88;;;;;;;;;;10436385;28;20075;-60
2020/12/27 11:49:44;;;;;;;44.45;28.88;;;;;;;;;;10435672;28;20078;-59
2020/12/27 11:54:41;;;;;;;20.67;16.10;;;;;;;;;;10436771;28;20050;-61
2020/12/27 11:59:39;;;;;;;25.13;19.65;;;;;;;;;;10435696;28;20066;-61
2020/12/27 12:04:36;;;;;;;23.25;17.20;;;;;;;;;;10442220;27;20063;-61
2020/12/27 12:09:34;;;;;;;28.00;20.63;;;;;;;;;;10443879;27;20062;-60
2020/12/27 12:14:40;;;;;;;16.02;13.35;;;;;;;;;;10442205;27;20058;-61
2020/12/27 12:19:37;;;;;;;15.65;12.88;;;;;;;;;;10443621;27;20066;-60
2020/12/27 12:24:35;;;;;;;15.65;12.82;;;;;;;;;;10442842;27;20104;-59
2020/12/27 12:29:33;;;;;;;25.42;18.20;;;;;;;;;;10440496;27;20468;-60
2020/12/27 12:34:30;;;;;;;14.85;12.77;;;;;;;;;;10442810;27;20035;-60
2020/12/27 12:39:27;;;;;;;14.90;11.68;;;;;;;;;;10441693;27;20039;-61
2020/12/27 12:44:25;;;;;;;17.67;12.88;;;;;;;;;;10443173;27;20069;-61
2020/12/27 12:49:22;;;;;;;22.50;16.95;;;;;;;;;;10442085;27;20074;-61
2020/12/27 12:54:20;;;;;;;19.60;13.88;;;;;;;;;;10442002;27;20071;-61
2020/12/27 12:59:17;;;;;;;15.82;12.70;;;;;;;;;;10423039;27;20479;-61
2020/12/27 13:04:15;;;;;;;23.60;16.17;;;;;;;;;;10441523;27;20043;-61
2020/12/27 13:09:13;;;;;;;17.38;13.40;;;;;;;;;;10439596;27;20089;-61
2020/12/27 13:14:10;;;;;;;23.17;18.63;;;;;;;;;;10440893;27;20051;-61
2020/12/27 13:19:07;;;;;;;17.65;12.93;;;;;;;;;;10440227;27;20079;-61
2020/12/27 13:24:06;;;;;;;14.30;10.52;;;;;;;;;;10440667;27;20118;-61
2020/12/27 13:29:03;;;;;;;17.27;12.05;;;;;;;;;;10439523;27;20617;-61
2020/12/27 13:34:00;;;;;;;16.75;11.43;;;;;;;;;;10439592;27;20039;-61
2020/12/27 13:39:00;;;;;;;19.77;14.63;;;;;;;;;;10441190;27;20066;-61
2020/12/27 13:43:58;;;;;;;23.38;15.55;;;;;;;;;;10441246;27;20063;-61
2020/12/27 13:48:56;;;;;;;21.77;15.93;;;;;;;;;;10440577;27;20090;-60
2020/12/27 13:53:55;;;;;;;37.00;23.23;;;;;;;;;;10437401;27;20043;-61
2020/12/27 13:58:53;;;;;;;23.23;14.93;;;;;;;;;;10436818;27;20078;-61
2020/12/27 14:03:52;;;;;;;25.77;17.67;;;;;;;;;;10439422;27;20051;-60
2020/12/27 14:08:49;;;;;;;42.38;26.38;;;;;;;;;;10437523;27;20101;-61
2020/12/27 14:13:46;;;;;;;32.08;21.73;;;;;;;;;;10438456;27;20043;-61
2020/12/27 14:18:45;;;;;;;45.70;28.17;;;;;;;;;;10437715;27;20073;-62
2020/12/27 14:23:44;;;;;;;37.55;22.95;;;;;;;;;;10438239;27;20523;-60
2020/12/27 14:28:41;;;;;;;26.08;18.98;;;;;;;;;;10438023;27;20074;-62
2020/12/27 14:33:40;;;;;;;26.10;17.98;;;;;;;;;;10438480;27;20447;-61
2020/12/27 14:38:37;;;;;;;24.45;17.75;;;;;;;;;;10437730;27;20081;-62
2020/12/27 14:43:35;;;;;;;29.98;18.63;;;;;;;;;;10437479;27;20083;-61
2020/12/27 14:48:33;;;;;;;28.33;21.13;;;;;;;;;;10435065;27;20468;-61
2020/12/27 14:53:30;;;;;;;42.47;25.48;;;;;;;;;;10437098;27;20077;-61
2020/12/27 14:58:27;;;;;;;25.85;17.00;;;;;;;;;;10436391;27;20047;-61
2020/12/27 15:03:26;;;;;;;26.58;19.23;;;;;;;;;;10437039;27;20066;-61
2020/12/27 15:08:23;;;;;;;27.30;18.23;;;;;;;;;;10435741;28;20074;-60
2020/12/27 15:13:21;;;;;;;32.47;19.65;;;;;;;;;;10436827;28;20067;-60
2020/12/27 15:18:18;;;;;;;23.17;16.45;;;;;;;;;;10436789;28;20031;-61
2020/12/27 15:23:16;;;;;;;26.58;17.23;;;;;;;;;;10436816;28;20039;-61
2020/12/27 15:28:14;;;;;;;29.10;18.08;;;;;;;;;;10434318;28;20070;-60
2020/12/27 15:33:13;;;;;;;35.42;22.20;;;;;;;;;;10437013;28;20047;-61
2020/12/27 15:38:10;;;;;;;61.50;41.22;;;;;;;;;;10440011;27;20067;-61
2020/12/27 15:43:13;;;;;;;38.50;25.48;;;;;;;;;;10436021;27;20511;-59
2020/12/27 15:48:11;;;;;;;34.67;28.48;;;;;;;;;;10433218;27;20059;-60
2020/12/27 15:53:09;;;;;;;42.95;27.08;;;;;;;;;;10439553;27;20102;-60
2020/12/27 15:58:08;;;;;;;59.40;35.03;;;;;;;;;;10434586;27;20075;-59
2020/12/27 16:03:06;;;;;;;39.00;22.38;;;;;;;;;;10445215;27;20082;-60
2020/12/27 16:08:03;;;;;;;40.75;20.27;;;;;;;;;;10443042;27;20078;-60
2020/12/27 16:13:01;;;;;;;40.70;28.02;;;;;;;;;;10428307;27;20508;-61
2020/12/27 16:17:58;;;;;;;33.75;25.63;;;;;;;;;;10432751;27;20067;-62
2020/12/27 16:22:56;;;;;;;64.32;37.13;;;;;;;;;;10428961;27;20059;-60
2020/12/27 16:27:55;;;;;;;51.33;35.85;;;;;;;;;;10437313;27;20050;-59
2020/12/27 16:32:53;;;;;;;104.00;65.47;;;;;;;;;;10434949;27;20071;-61
2020/12/27 16:37:51;;;;;;;47.63;32.55;;;;;;;;;;10440983;27;20164;-61
2020/12/27 16:42:49;;;;;;;43.78;29.75;;;;;;;;;;10439602;27;20039;-60
2020/12/27 16:47:46;;;;;;;57.72;36.95;;;;;;;;;;10440769;27;20042;-61
2020/12/27 16:52:44;;;;;;;57.15;38.47;;;;;;;;;;10434117;27;20079;-61
2020/12/27 16:57:43;;;;;;;69.18;49.30;;;;;;;;;;10442140;27;20518;-60
2020/12/27 17:02:41;;;;;;;54.72;33.05;;;;;;;;;;10442994;27;20070;-60
2020/12/27 17:07:41;;;;;;;55.65;31.50;;;;;;;;;;10443801;27;20073;-59
2020/12/27 17:12:38;;;;;;;107.65;49.35;;;;;;;;;;10443989;27;20498;-60
2020/12/27 17:17:51;;;;;;;43.63;28.25;;;;;;;;;;10442225;27;20043;-59
2020/12/27 17:22:48;;;;;;;40.58;27.70;;;;;;;;;;10438537;27;20088;-59
2020/12/27 17:27:45;;;;;;;39.17;25.40;;;;;;;;;;10442193;27;20039;-60
2020/12/27 17:32:43;;;;;;;39.10;28.85;;;;;;;;;;10442081;27;20081;-59
2020/12/27 17:37:41;;;;;;;38.88;26.35;;;;;;;;;;10441331;27;20055;-59
2020/12/27 17:42:40;;;;;;;34.03;24.95;;;;;;;;;;10437829;27;20035;-59
2020/12/27 17:47:37;;;;;;;37.15;26.63;;;;;;;;;;10428759;27;20086;-60
2020/12/27 17:52:35;;;;;;;44.83;30.20;;;;;;;;;;10440065;27;20094;-60
2020/12/27 17:57:34;;;;;;;55.15;37.50;;;;;;;;;;10429585;27;20481;-61
2020/12/27 18:02:31;;;;;;;50.65;31.65;;;;;;;;;;10436767;27;20537;-64
2020/12/27 18:07:29;;;;;;;40.80;30.10;;;;;;;;;;10440526;27;20066;-63
2020/12/27 18:12:26;;;;;;;42.00;27.58;;;;;;;;;;10436154;27;20062;-63
2020/12/27 18:17:24;;;;;;;36.55;25.35;;;;;;;;;;10427412;27;20054;-62
2020/12/27 18:22:22;;;;;;;52.90;34.78;;;;;;;;;;10432512;27;20082;-62
2020/12/27 18:27:19;;;;;;;45.17;28.52;;;;;;;;;;10434617;27;20058;-63
2020/12/27 18:32:16;;;;;;;38.83;26.75;;;;;;;;;;10427765;27;20078;-63
2020/12/27 18:37:15;;;;;;;44.05;28.25;;;;;;;;;;10433161;27;20070;-63
2020/12/27 18:42:12;;;;;;;29.35;21.80;;;;;;;;;;10438544;27;20054;-63
2020/12/27 18:47:09;;;;;;;30.60;22.48;;;;;;;;;;10437278;27;20043;-63
2020/12/27 18:52:07;;;;;;;29.15;19.75;;;;;;;;;;10432698;27;20086;-63
2020/12/27 18:57:05;;;;;;;26.48;17.85;;;;;;;;;;10429423;27;20070;-62
2020/12/27 19:02:03;;;;;;;36.03;28.83;;;;;;;;;;10437041;27;20067;-63
2020/12/27 19:07:00;;;;;;;37.50;31.25;;;;;;;;;;10430362;27;20074;-63
2020/12/27 19:11:57;;;;;;;35.25;25.42;;;;;;;;;;10440136;27;20075;-63
2020/12/27 19:16:56;;;;;;;33.78;26.33;;;;;;;;;;10453172;27;20039;-62
2020/12/27 19:21:54;;;;;;;33.92;28.02;;;;;;;;;;10449577;27;20035;-62
2020/12/27 19:26:52;;;;;;;84.72;60.33;;;;;;;;;;10450218;27;20812;-63
2020/12/27 19:31:49;;;;;;;152.27;88.57;;;;;;;;;;10448564;27;20071;-63
2020/12/27 19:36:48;;;;;;;168.35;106.60;;;;;;;;;;10452516;27;20059;-63
2020/12/27 19:41:45;;;;;;;97.25;69.65;;;;;;;;;;10451620;27;20039;-63
2020/12/27 19:46:43;;;;;;;71.53;58.20;;;;;;;;;;10450448;27;20066;-63
2020/12/27 19:51:44;;;;;;;39.47;33.50;;;;;;;;;;10452484;27;20082;-63
2020/12/27 19:56:42;;;;;;;33.70;25.02;;;;;;;;;;10453143;27;20046;-63
2020/12/27 20:01:39;;;;;;;28.45;22.75;;;;;;;;;;10452503;27;20043;-63
2020/12/27 20:06:37;;;;;;;22.10;18.85;;;;;;;;;;10444809;27;20523;-63
2020/12/27 20:11:35;;;;;;;25.17;18.55;;;;;;;;;;10449214;27;20079;-62
2020/12/27 20:16:33;;;;;;;28.60;20.13;;;;;;;;;;10450828;27;20097;-62
2020/12/27 20:21:30;;;;;;;29.67;22.65;;;;;;;;;;10447525;27;20066;-63
2020/12/27 20:26:28;;;;;;;27.08;21.50;;;;;;;;;;10445048;27;20094;-63
2020/12/27 20:31:26;;;;;;;27.52;20.80;;;;;;;;;;10443708;27;20526;-63
2020/12/27 20:36:25;;;;;;;25.23;19.30;;;;;;;;;;10443368;27;20492;-62
2020/12/27 20:41:22;;;;;;;25.15;18.63;;;;;;;;;;10424701;27;20046;-63
2020/12/27 20:46:20;;;;;;;24.65;18.90;;;;;;;;;;10425643;27;20393;-64
2020/12/27 20:51:17;;;;;;;32.28;23.60;;;;;;;;;;10443201;27;20079;-65
2020/12/27 20:56:15;;;;;;;27.55;23.85;;;;;;;;;;10443522;27;20416;-64
2020/12/27 21:01:12;;;;;;;25.92;20.23;;;;;;;;;;10440759;27;20054;-63
2020/12/27 21:06:14;;;;;;;22.88;18.63;;;;;;;;;;10443096;27;20078;-64
2020/12/27 21:11:12;;;;;;;21.63;17.35;;;;;;;;;;10440334;27;20082;-64
2020/12/27 21:16:11;;;;;;;27.95;21.02;;;;;;;;;;10443563;27;20411;-64
2020/12/27 21:21:10;;;;;;;24.77;19.80;;;;;;;;;;10441780;27;20078;-64
2020/12/27 21:26:07;;;;;;;20.08;17.73;;;;;;;;;;10442997;27;20473;-64
2020/12/27 21:31:05;;;;;;;19.75;15.73;;;;;;;;;;10442298;27;20105;-64
2020/12/27 21:36:04;;;;;;;16.63;14.63;;;;;;;;;;10439850;27;20071;-63
2020/12/27 21:41:02;;;;;;;15.90;14.02;;;;;;;;;;10441231;27;20518;-64
2020/12/27 21:45:59;;;;;;;20.38;16.25;;;;;;;;;;10441163;27;20046;-63
2020/12/27 21:50:56;;;;;;;24.42;19.13;;;;;;;;;;10440510;27;20121;-63
2020/12/27 21:55:54;;;;;;;16.17;13.73;;;;;;;;;;10441738;27;20058;-63
2020/12/27 22:00:52;;;;;;;19.27;15.15;;;;;;;;;;10437118;27;20055;-62
2020/12/27 22:05:50;;;;;;;15.80;13.82;;;;;;;;;;10405967;27;20075;-63
2020/12/27 22:10:47;;;;;;;19.20;15.70;;;;;;;;;;10436960;27;20070;-63
2020/12/27 22:15:45;;;;;;;17.23;14.05;;;;;;;;;;10440374;27;20059;-63
2020/12/27 22:20:42;;;;;;;20.33;15.90;;;;;;;;;;10435159;27;20461;-63
2020/12/27 22:25:40;;;;;;;23.08;17.00;;;;;;;;;;10440571;27;20074;-63
2020/12/27 22:30:37;;;;;;;20.33;16.35;;;;;;;;;;10439934;27;20070;-63
2020/12/27 22:35:35;;;;;;;23.45;19.75;;;;;;;;;;10440983;27;20043;-63
2020/12/27 22:40:33;;;;;;;19.92;16.45;;;;;;;;;;10436132;27;20073;-63
2020/12/27 22:45:31;;;;;;;25.98;17.85;;;;;;;;;;10435698;27;20067;-63
2020/12/27 22:50:33;;;;;;;21.25;18.05;;;;;;;;;;10434318;27;20082;-64
2020/12/27 22:55:31;;;;;;;28.17;21.95;;;;;;;;;;10434995;27;20070;-63
2020/12/27 23:00:29;;;;;;;21.77;17.40;;;;;;;;;;10438071;27;20384;-63
2020/12/27 23:05:27;;;;;;;22.33;14.57;;;;;;;;;;10437959;27;20071;-63
2020/12/27 23:10:24;;;;;;;20.17;14.60;;;;;;;;;;10437432;27;20467;-64
2020/12/27 23:15:23;;;;;;;18.95;15.57;;;;;;;;;;10437339;28;20059;-63
2020/12/27 23:20:21;;;;;;;17.20;14.05;;;;;;;;;;10437685;28;20055;-63
2020/12/27 23:25:18;;;;;;;18.23;14.02;;;;;;;;;;10436688;28;20073;-63
2020/12/27 23:30:17;;;;;;;18.73;15.68;;;;;;;;;;10436858;28;20071;-63
2020/12/27 23:35:15;;;;;;;20.15;17.15;;;;;;;;;;10436871;28;20443;-64
2020/12/27 23:40:12;;;;;;;15.77;13.80;;;;;;;;;;10416278;28;20468;-63
2020/12/27 23:45:11;;;;;;;17.83;12.90;;;;;;;;;;10433715;28;20568;-63
2020/12/27 23:50:08;;;;;;;12.80;11.40;;;;;;;;;;10436817;28;20078;-65
2020/12/27 23:55:06;;;;;;;13.50;12.02;;;;;;;;;;10437160;28;20070;-63
